Time;durP1;ratioP1;P1;durP2;ratioP2;P2;SDS_P1;SDS_P2;PMS_P1;PMS_P2;Temp;Humidity;BMP_temperature;BMP_pressure;BME280_temperature;BME280_humidity;BME280_pressure;Samples;Min_cycle;Max_cycle;Signal;HPM_P1;HPM_P2
2022/09/14 00:03:15;;;;;;;3.30;2.00;;;;;;;23.98;52.86;97816.34;7004228;28;20215;-77
2022/09/14 00:06:37;;;;;;;3.10;1.90;;;;;;;24.07;51.89;97799.88;7003820;28;20700;-77
2022/09/14 00:10:00;;;;;;;1.90;1.80;;;;;;;23.97;53.11;97822.16;7002973;28;20299;-77
2022/09/14 00:13:21;;;;;;;5.00;2.57;;;;;;;24.04;52.56;97797.75;7003676;28;20204;-77
2022/09/14 00:16:44;;;;;;;2.70;2.00;;;;;;;24.33;50.79;97798.06;7002486;28;20308;-77
2022/09/14 00:20:06;;;;;;;2.63;1.90;;;;;;;24.25;52.28;97810.66;7003120;28;20274;-77
2022/09/14 00:23:28;;;;;;;3.10;2.10;;;;;;;24.24;52.05;97805.47;7029982;28;20216;-77
2022/09/14 00:26:51;;;;;;;2.63;1.90;;;;;;;24.13;52.44;97798.63;7030843;28;20300;-77
2022/09/14 00:30:13;;;;;;;2.17;1.90;;;;;;;23.86;53.27;97799.56;7030905;28;20620;-77
2022/09/14 00:33:35;;;;;;;2.63;2.03;;;;;;;24.10;52.86;97778.03;7031129;28;20290;-77
2022/09/14 00:36:56;;;;;;;2.03;1.83;;;;;;;24.30;52.38;97755.41;7030766;28;20321;-77
2022/09/14 00:40:18;;;;;;;2.40;1.90;;;;;;;24.31;52.00;97753.47;7030664;28;20259;-77
2022/09/14 00:43:57;;;;;;;2.73;1.83;;;;;;;24.40;51.77;97759.81;7030561;28;20274;-77
2022/09/14 00:47:19;;;;;;;2.03;1.80;;;;;;;24.20;52.82;97750.19;7030844;28;20227;-77
2022/09/14 00:50:41;;;;;;;3.80;2.07;;;;;;;24.13;53.33;97738.03;7030060;28;20282;-77
2022/09/14 00:54:03;;;;;;;2.47;1.70;;;;;;;24.22;52.98;97747.13;7030668;28;20272;-77
2022/09/14 00:57:26;;;;;;;1.97;1.83;;;;;;;23.97;53.47;97703.75;7030402;28;20376;-77
2022/09/14 01:00:49;;;;;;;4.00;2.00;;;;;;;24.17;53.36;97737.06;7026690;28;20222;-77
2022/09/14 01:04:10;;;;;;;2.43;1.80;;;;;;;24.35;52.77;97743.44;7002210;28;20272;-77
2022/09/14 01:07:45;;;;;;;2.73;1.90;;;;;;;24.34;51.61;97697.72;7002066;28;20256;-77
2022/09/14 01:11:14;;;;;;;2.10;1.90;;;;;;;24.53;51.35;97728.56;7002514;28;20315;-76
2022/09/14 01:14:41;;;;;;;2.30;2.10;;;;;;;24.48;51.08;97718.50;7002278;28;20267;-77
2022/09/14 01:18:07;;;;;;;4.53;1.83;;;;;;;24.39;52.02;97706.69;7001873;28;20787;-77
2022/09/14 01:21:32;;;;;;;2.43;2.20;;;;;;;23.64;54.86;97703.25;7002276;28;20679;-77
2022/09/14 01:24:56;;;;;;;3.13;1.90;;;;;;;24.15;53.41;97695.25;7001804;28;20207;-77
2022/09/14 01:28:22;;;;;;;4.67;1.90;;;;;;;24.13;53.57;97680.19;7001243;28;20377;-77
2022/09/14 01:31:49;;;;;;;7.27;2.00;;;;;;;24.10;53.70;97695.41;7001909;28;20381;-77
2022/09/14 01:35:14;;;;;;;3.10;2.10;;;;;;;24.33;53.15;97753.97;7001645;28;20269;-77
2022/09/14 01:38:39;;;;;;;3.47;1.87;;;;;;;23.88;54.51;97827.63;7001233;28;20217;-77
2022/09/14 01:42:01;;;;;;;2.80;1.87;;;;;;;24.00;53.09;97805.00;7001584;28;20227;-77
2022/09/14 01:45:26;;;;;;;8.77;3.60;;;;;;;23.58;56.15;97797.25;7001281;28;20207;-76
2022/09/14 01:48:51;;;;;;;5.70;3.10;;;;;;;23.29;59.20;97825.19;7001560;28;20696;-77
2022/09/14 01:52:15;;;;;;;8.53;3.97;;;;;;;23.77;60.65;97839.19;7001854;28;20232;-76
2022/09/14 01:55:42;;;;;;;5.40;3.20;;;;;;;22.97;61.55;97863.00;7001324;28;20588;-76
2022/09/14 01:59:08;;;;;;;6.30;3.50;;;;;;;22.83;61.66;97810.78;7007203;28;20354;-76
2022/09/14 02:02:34;;;;;;;3.57;3.20;;;;;;;23.39;61.35;97863.47;7029438;28;20213;-76
2022/09/14 02:05:58;;;;;;;5.43;3.60;;;;;;;22.62;63.01;97861.81;7029682;28;20641;-76
2022/09/14 02:09:25;;;;;;;5.80;3.37;;;;;;;22.83;62.91;97856.72;7028481;28;20304;-76
2022/09/14 02:12:46;;;;;;;8.70;4.23;;;;;;;22.98;64.76;97851.69;7029723;28;20191;-76
2022/09/14 02:16:08;;;;;;;10.73;4.30;;;;;;;23.45;63.41;97851.22;7028998;28;20775;-76
2022/09/14 02:19:34;;;;;;;7.67;4.40;;;;;;;23.41;63.31;97819.94;7027947;28;20661;-76
2022/09/14 02:22:55;;;;;;;7.23;4.43;;;;;;;23.59;63.99;97846.47;7029096;28;20191;-76
2022/09/14 02:26:19;;;;;;;6.50;3.83;;;;;;;23.20;64.96;97843.53;7028257;28;20326;-76
2022/09/14 02:29:40;;;;;;;8.77;4.67;;;;;;;22.83;66.60;97840.22;7028095;28;20670;-76
2022/09/14 02:33:08;;;;;;;10.07;3.90;;;;;;;23.13;66.27;97847.81;7028776;28;20295;-76
2022/09/14 02:36:38;;;;;;;6.77;3.60;;;;;;;23.74;63.66;97810.34;7028421;28;20307;-76
2022/09/14 02:40:06;;;;;;;9.77;4.63;;;;;;;23.39;64.35;97802.94;7028585;28;20699;-76
2022/09/14 02:43:33;;;;;;;8.80;4.60;;;;;;;23.63;64.21;97808.97;7029099;28;20188;-77
2022/09/14 02:46:58;;;;;;;6.07;4.60;;;;;;;23.56;64.18;97838.84;7029114;28;20223;-76
2022/09/14 02:50:23;;;;;;;6.57;4.20;;;;;;;23.47;64.42;97826.94;7027891;28;20588;-77
2022/09/14 02:53:51;;;;;;;8.23;4.37;;;;;;;22.66;66.88;97815.28;7028281;28;20209;-77
2022/09/14 02:57:12;;;;;;;6.53;4.13;;;;;;;22.28;68.88;97820.13;7027737;28;20294;-76
2022/09/14 03:00:36;;;;;;;7.90;4.37;;;;;;;22.76;68.34;97801.31;7027471;28;20774;-77
2022/09/14 03:03:58;;;;;;;7.03;4.67;;;;;;;23.11;66.73;97815.13;7027989;28;20786;-77
2022/09/14 03:07:19;;;;;;;7.47;4.50;;;;;;;23.32;66.13;97815.50;7032234;28;20308;-77
2022/09/14 03:10:43;;;;;;;4.83;3.60;;;;;;;23.62;64.46;97788.06;7032404;28;20287;-76
2022/09/14 03:14:05;;;;;;;4.30;3.40;;;;;;;23.62;63.66;97795.50;7033680;28;20663;-77
2022/09/14 03:17:26;;;;;;;8.40;3.87;;;;;;;23.76;63.25;97788.81;7033964;28;20365;-77
2022/09/14 03:20:48;;;;;;;6.50;3.77;;;;;;;23.76;63.22;97807.25;7031715;28;20229;-76
2022/09/14 03:24:09;;;;;;;7.63;3.77;;;;;;;23.68;63.86;97795.06;7032028;28;20235;-77
2022/09/14 03:27:32;;;;;;;7.23;4.30;;;;;;;23.26;64.01;97743.28;7032637;28;20756;-77
2022/09/14 03:30:54;;;;;;;5.93;4.27;;;;;;;23.35;64.76;97785.44;7032859;28;20346;-77
2022/09/14 03:34:15;;;;;;;4.67;3.53;;;;;;;23.82;64.06;97798.56;7032801;28;20253;-76
2022/09/14 03:37:37;;;;;;;4.60;3.30;;;;;;;23.96;62.77;97785.53;7031958;28;20257;-77
2022/09/14 03:40:58;;;;;;;6.33;3.80;;;;;;;23.42;65.13;97772.03;7032114;28;20223;-77
2022/09/14 03:44:21;;;;;;;8.43;4.03;;;;;;;23.62;64.41;97756.97;7032454;28;20695;-78
2022/09/14 03:47:43;;;;;;;6.67;3.80;;;;;;;23.73;64.42;97764.66;7031735;28;20253;-78
2022/09/14 03:51:06;;;;;;;6.07;2.97;;;;;;;23.97;63.39;97765.16;7032642;28;20207;-78
2022/09/14 03:54:28;;;;;;;6.40;3.70;;;;;;;24.00;63.51;97736.97;7034035;28;20300;-79
2022/09/14 03:57:53;;;;;;;4.83;3.20;;;;;;;23.82;63.90;97740.75;7032553;28;20330;-79
2022/09/14 04:01:17;;;;;;;6.80;3.50;;;;;;;23.90;64.22;97740.00;7026493;28;20280;-79
2022/09/14 04:04:39;;;;;;;4.00;3.50;;;;;;;23.72;64.37;97732.75;7031301;28;20833;-79
2022/09/14 04:08:00;;;;;;;4.20;3.73;;;;;;;23.88;63.74;97728.50;7030446;28;20229;-79
2022/09/14 04:11:23;;;;;;;4.70;3.60;;;;;;;23.85;64.33;97736.56;7030843;28;20290;-79
2022/09/14 04:14:45;;;;;;;4.57;3.40;;;;;;;23.86;63.78;97722.47;7030767;28;20226;-78
2022/09/14 04:18:07;;;;;;;4.23;3.63;;;;;;;23.91;63.61;97722.38;7030050;28;20223;-79
2022/09/14 04:21:29;;;;;;;5.10;3.67;;;;;;;23.90;64.09;97717.19;7028236;28;20278;-79
2022/09/14 04:24:50;;;;;;;4.03;3.60;;;;;;;23.80;64.28;97709.16;7030288;28;20237;-79
2022/09/14 04:28:12;;;;;;;4.57;3.60;;;;;;;23.49;65.21;97717.38;7030031;28;20225;-79
2022/09/14 04:31:34;;;;;;;5.03;3.60;;;;;;;23.49;65.73;97708.34;7030204;28;20212;-80
2022/09/14 04:34:57;;;;;;;7.23;3.77;;;;;;;23.73;64.87;97706.03;7030243;28;20195;-79
2022/09/14 04:38:18;;;;;;;3.73;3.10;;;;;;;23.99;63.99;97707.81;7028382;28;20231;-79
2022/09/14 04:41:40;;;;;;;4.60;3.50;;;;;;;23.96;63.68;97704.91;7029659;28;20295;-80
2022/09/14 04:45:01;;;;;;;4.20;3.40;;;;;;;24.03;63.56;97713.50;7029647;28;20257;-80
2022/09/14 04:48:23;;;;;;;4.70;3.10;;;;;;;23.97;63.70;97701.00;7028448;28;20323;-80
2022/09/14 04:51:45;;;;;;;5.30;3.13;;;;;;;23.63;64.41;97704.38;7030656;28;20206;-79
2022/09/14 04:55:09;;;;;;;6.90;3.30;;;;;;;23.54;64.65;97681.47;7031171;28;20269;-80
2022/09/14 04:58:30;;;;;;;5.23;3.57;;;;;;;23.44;64.63;97679.03;7030726;28;20240;-80
2022/09/14 05:01:52;;;;;;;3.97;3.20;;;;;;;23.48;64.07;97673.69;7032368;28;20639;-79
2022/09/14 05:05:13;;;;;;;4.43;3.13;;;;;;;23.38;64.77;97665.69;7031559;28;20288;-80
2022/09/14 05:08:37;;;;;;;4.03;3.30;;;;;;;23.69;63.82;97700.38;7031164;28;20225;-80
2022/09/14 05:11:59;;;;;;;4.53;3.10;;;;;;;23.73;63.63;97704.09;7031881;28;20206;-81
2022/09/14 05:15:20;;;;;;;3.70;3.17;;;;;;;23.78;63.27;97700.41;7031576;28;20342;-80
2022/09/14 05:18:42;;;;;;;3.93;3.53;;;;;;;23.63;63.94;97687.03;7029652;28;20262;-79
2022/09/14 05:22:04;;;;;;;4.70;3.50;;;;;;;23.70;64.06;97704.72;7030929;28;20225;-80
2022/09/14 05:25:27;;;;;;;4.97;3.57;;;;;;;22.90;67.19;97714.97;7029413;28;20199;-80
2022/09/14 05:28:50;;;;;;;4.37;3.80;;;;;;;23.07;67.35;97726.09;7030402;28;20221;-80
2022/09/14 05:32:12;;;;;;;5.07;4.57;;;;;;;23.48;66.09;97721.28;7030390;28;20237;-79
2022/09/14 05:35:33;;;;;;;4.43;4.03;;;;;;;22.64;68.17;97727.66;7030986;28;20323;-79
2022/09/14 05:38:56;;;;;;;5.43;4.17;;;;;;;23.22;67.46;97758.78;7029398;28;20270;-81
2022/09/14 05:42:19;;;;;;;5.80;4.70;;;;;;;22.69;68.87;97759.69;7029872;28;20302;-80
2022/09/14 05:45:40;;;;;;;5.60;4.90;;;;;;;22.68;69.02;97747.09;7029606;28;21266;-79
2022/09/14 05:49:02;;;;;;;7.40;4.87;;;;;;;23.19;67.60;97742.91;7029745;28;20206;-80
2022/09/14 05:52:24;;;;;;;9.80;5.33;;;;;;;23.62;66.62;97759.72;7020456;28;20212;-80
2022/09/14 05:55:45;;;;;;;9.53;5.47;;;;;;;23.69;66.35;97755.41;7030336;28;20247;-80
2022/09/14 05:59:09;;;;;;;7.50;4.97;;;;;;;23.64;65.51;97736.28;7029783;28;20299;-80
2022/09/14 06:02:31;;;;;;;5.47;4.87;;;;;;;23.63;65.73;97693.38;7030584;28;20235;-80
2022/09/14 06:05:53;;;;;;;8.03;5.30;;;;;;;24.24;64.74;97726.38;7030780;28;20312;-80
2022/09/14 06:09:15;;;;;;;6.90;5.20;;;;;;;24.41;64.11;97723.69;7029572;28;20203;-80
2022/09/14 06:12:36;;;;;;;7.13;5.27;;;;;;;24.22;63.96;97697.53;7030568;28;20564;-80
2022/09/14 06:16:03;;;;;;;8.27;5.07;;;;;;;24.32;63.86;97686.22;7030413;28;20280;-80
2022/09/14 06:19:24;;;;;;;7.63;4.70;;;;;;;24.56;62.84;97705.91;7027265;28;20721;-81
2022/09/14 06:22:46;;;;;;;5.77;4.87;;;;;;;24.99;62.11;97729.66;7024747;28;20227;-79
2022/09/14 06:26:07;;;;;;;5.23;3.90;;;;;;;25.22;60.86;97711.00;7030024;28;20455;-80
2022/09/14 06:29:29;;;;;;;6.47;4.60;;;;;;;25.01;61.86;97715.56;7029620;28;20291;-80
2022/09/14 06:32:52;;;;;;;6.20;4.77;;;;;;;24.74;61.90;97700.13;7027224;28;20295;-78
2022/09/14 06:36:14;;;;;;;5.67;4.73;;;;;;;25.20;62.04;97716.84;7027932;28;20219;-79
2022/09/14 06:39:36;;;;;;;7.87;5.80;;;;;;;25.39;61.90;97747.72;7027926;28;20200;-78
2022/09/14 06:43:01;;;;;;;7.33;4.97;;;;;;;25.05;62.82;97746.84;7029878;28;20612;-78
2022/09/14 06:46:23;;;;;;;5.70;4.60;;;;;;;25.56;62.18;97739.44;7035093;28;20224;-78
2022/09/14 06:49:48;;;;;;;6.50;5.10;;;;;;;25.72;61.07;97737.75;7034480;28;20292;-78
2022/09/14 06:53:10;;;;;;;4.20;3.80;;;;;;;25.95;59.11;97727.34;7034738;28;20209;-79
2022/09/14 06:56:33;;;;;;;4.93;4.40;;;;;;;26.15;58.43;97718.31;7034865;28;20895;-78
2022/09/14 06:59:54;;;;;;;6.77;4.07;;;;;;;25.99;59.08;97720.81;7034612;28;20251;-78
2022/09/14 07:03:16;;;;;;;6.63;4.30;;;;;;;26.01;59.29;97710.25;7035024;28;20235;-79
2022/09/14 07:06:41;;;;;;;6.63;6.03;;;;;;;24.79;63.60;97708.22;7034245;28;20276;-79
2022/09/14 07:10:03;;;;;;;5.53;4.00;;;;;;;24.75;65.14;97698.16;7033682;28;20245;-78
2022/09/14 07:13:25;;;;;;;6.63;4.60;;;;;;;25.13;63.94;97707.44;7034244;28;20210;-78
2022/09/14 07:16:46;;;;;;;6.20;4.70;;;;;;;25.11;63.86;97702.25;7023034;28;20611;-79
2022/09/14 07:20:08;;;;;;;4.43;4.00;;;;;;;25.55;62.34;97703.84;7031841;28;20213;-79
2022/09/14 07:23:31;;;;;;;7.30;3.50;;;;;;;25.66;62.43;97714.22;7034245;28;20290;-78
2022/09/14 07:26:53;;;;;;;5.73;3.77;;;;;;;26.04;61.83;97715.13;7033464;28;20255;-79
2022/09/14 07:30:14;;;;;;;4.50;4.07;;;;;;;25.83;62.25;97719.69;7032472;28;20208;-79
2022/09/14 07:33:36;;;;;;;3.77;3.20;;;;;;;26.58;60.20;97725.28;7034155;28;20205;-79
2022/09/14 07:36:57;;;;;;;7.07;3.80;;;;;;;26.79;58.40;97717.03;7032963;28;20316;-79
2022/09/14 07:40:22;;;;;;;5.37;3.20;;;;;;;27.10;56.88;97722.97;7033417;28;20210;-78
2022/09/14 07:43:44;;;;;;;4.77;3.20;;;;;;;26.83;57.70;97724.31;7034407;28;20224;-79
2022/09/14 07:47:05;;;;;;;3.30;2.90;;;;;;;27.04;56.60;97736.22;7036120;28;20308;-79
2022/09/14 07:50:27;;;;;;;3.20;2.90;;;;;;;27.12;56.83;97731.75;7036871;28;20266;-79
2022/09/14 07:53:48;;;;;;;5.23;3.57;;;;;;;27.26;56.29;97716.50;7036652;28;20281;-79
2022/09/14 07:57:11;;;;;;;3.00;2.70;;;;;;;27.95;54.65;97719.47;7033431;28;20278;-80
2022/09/14 08:00:33;;;;;;;4.10;2.80;;;;;;;27.94;54.46;97726.94;7032977;28;20578;-79
2022/09/14 08:03:55;;;;;;;3.20;2.90;;;;;;;28.00;53.38;97708.13;7033812;28;20258;-80
2022/09/14 08:07:16;;;;;;;3.10;2.40;;;;;;;28.95;51.31;97731.53;7033824;28;20226;-81
2022/09/14 08:10:38;;;;;;;3.73;2.97;;;;;;;28.99;53.00;97746.34;7032703;28;20270;-80
2022/09/14 08:14:03;;;;;;;5.63;2.70;;;;;;;28.59;52.97;97729.59;7031961;28;20295;-79
2022/09/14 08:17:24;;;;;;;3.50;2.43;;;;;;;28.45;51.17;97740.22;7033075;28;20236;-80
2022/09/14 08:20:46;;;;;;;3.10;2.37;;;;;;;28.69;52.16;97756.03;7031455;28;20206;-79
2022/09/14 08:24:07;;;;;;;4.67;2.60;;;;;;;28.18;51.10;97738.06;7017996;28;20310;-79
2022/09/14 08:27:29;;;;;;;7.67;2.70;;;;;;;27.84;53.91;97745.97;7023499;28;20307;-80
2022/09/14 08:30:52;;;;;;;3.33;2.77;;;;;;;27.76;54.10;97764.28;7032155;28;20288;-79
2022/09/14 08:34:15;;;;;;;2.70;2.50;;;;;;;27.31;54.79;97762.56;7017589;28;20678;-79
2022/09/14 08:37:37;;;;;;;3.87;2.63;;;;;;;27.21;56.87;97785.94;7017883;28;20278;-79
2022/09/14 08:41:08;;;;;;;4.57;2.90;;;;;;;27.14;56.06;97779.28;7032159;28;20223;-80
2022/09/14 08:44:32;;;;;;;4.93;2.67;;;;;;;27.19;55.99;97768.84;7010060;28;20315;-78
2022/09/14 08:47:56;;;;;;;3.60;2.70;;;;;;;27.58;54.29;97796.06;7003252;28;20230;-78
2022/09/14 08:51:17;;;;;;;4.83;2.90;;;;;;;27.56;54.46;97773.44;7003810;28;20202;-80
2022/09/14 08:54:39;;;;;;;2.90;2.60;;;;;;;27.85;54.26;97781.63;7004448;28;20207;-79
2022/09/14 08:58:05;;;;;;;5.93;2.70;;;;;;;27.73;55.13;97828.66;7002482;28;20238;-79
2022/09/14 09:01:34;;;;;;;4.80;2.83;;;;;;;27.60;55.60;97806.81;7027797;28;22643;-79
2022/09/14 09:05:00;;;;;;;5.10;2.60;;;;;;;28.11;54.17;97817.41;7030470;28;20188;-79
2022/09/14 09:08:27;;;;;;;4.60;2.80;;;;;;;27.94;54.37;97787.91;7030567;28;20324;-78
2022/09/14 09:11:51;;;;;;;5.40;2.70;;;;;;;28.93;53.32;97786.56;7030293;28;20181;-79
2022/09/14 09:15:19;;;;;;;3.37;2.90;;;;;;;29.23;51.72;97783.19;7028636;28;20684;-79
2022/09/14 09:18:45;;;;;;;3.67;2.57;;;;;;;29.45;50.67;97799.34;7001350;28;20248;-78
2022/09/14 09:22:14;;;;;;;3.27;2.90;;;;;;;29.95;49.18;97788.53;7001739;28;20246;-79
2022/09/14 09:25:47;;;;;;;3.90;2.83;;;;;;;31.27;45.82;97804.34;7001489;28;20204;-79
2022/09/14 09:29:09;;;;;;;3.80;2.60;;;;;;;29.94;48.77;97805.56;7000651;28;20702;-81
2022/09/14 09:32:31;;;;;;;4.13;2.60;;;;;;;30.24;47.79;97790.94;7001551;28;20346;-79
2022/09/14 09:35:54;;;;;;;6.93;2.70;;;;;;;30.26;46.82;97788.59;7005983;28;20249;-78
2022/09/14 09:39:18;;;;;;;3.07;2.13;;;;;;;29.94;47.70;97788.88;7028779;28;20290;-79
2022/09/14 09:43:08;;;;;;;6.60;3.50;;;;;;;30.06;47.44;97789.63;7024805;28;20287;-78
2022/09/14 09:46:31;;;;;;;4.90;3.13;;;;;;;29.63;48.34;97777.66;7017693;28;20229;-78
2022/09/14 09:49:59;;;;;;;3.20;2.37;;;;;;;29.50;48.64;97784.41;7030118;28;20621;-79
2022/09/14 09:53:21;;;;;;;2.77;2.50;;;;;;;29.66;48.44;97774.19;7030890;28;20291;-78
2022/09/14 09:56:52;;;;;;;3.73;2.33;;;;;;;30.17;47.96;97764.91;7030577;28;20229;-79
2022/09/14 10:00:26;;;;;;;3.23;2.53;;;;;;;30.83;45.98;97760.31;7029848;28;20223;-80
2022/09/14 10:04:03;;;;;;;2.23;2.00;;;;;;;31.62;44.48;97743.00;7031542;28;20231;-79
2022/09/14 10:07:25;;;;;;;6.43;2.50;;;;;;;31.45;43.82;97721.97;7020163;28;20230;-78
2022/09/14 10:10:47;;;;;;;5.70;2.60;;;;;;;31.04;45.00;97724.59;7029460;28;20272;-79
2022/09/14 10:14:21;;;;;;;2.53;2.33;;;;;;;31.30;44.44;97728.38;7014476;28;20287;-78
2022/09/14 10:18:06;;;;;;;3.80;2.10;;;;;;;31.36;44.42;97720.56;7006645;28;20228;-79
2022/09/14 10:21:27;;;;;;;3.97;2.37;;;;;;;30.82;43.71;97701.03;7008330;28;20197;-78
2022/09/14 10:24:54;;;;;;;2.93;2.37;;;;;;;31.22;43.18;97684.84;7010127;28;20206;-79
2022/09/14 10:28:21;;;;;;;4.10;2.43;;;;;;;31.65;41.94;97706.00;7028017;28;20220;-78
2022/09/14 10:31:43;;;;;;;3.73;2.20;;;;;;;32.00;40.66;97709.50;7025293;28;20289;-79
2022/09/14 10:35:14;;;;;;;5.03;2.50;;;;;;;31.05;42.46;97695.56;7018973;28;20236;-78
2022/09/14 10:38:40;;;;;;;4.03;2.30;;;;;;;29.90;44.12;97663.69;7018821;28;20701;-79
2022/09/14 10:42:07;;;;;;;3.90;2.37;;;;;;;30.48;43.95;97685.06;7009130;28;20221;-79
2022/09/14 10:45:30;;;;;;;3.90;2.37;;;;;;;30.81;43.48;97684.69;7009902;28;20261;-79
2022/09/14 10:49:04;;;;;;;3.87;2.40;;;;;;;31.21;42.53;97672.09;7006251;28;20206;-78
2022/09/14 10:52:36;;;;;;;4.17;2.73;;;;;;;30.84;42.71;97668.06;7016568;28;20692;-78
2022/09/14 10:56:00;;;;;;;4.27;2.40;;;;;;;31.14;42.78;97676.69;7006864;28;20314;-80
2022/09/14 10:59:28;;;;;;;3.97;2.27;;;;;;;31.68;42.18;97672.66;7017976;28;20216;-79
2022/09/14 11:03:08;;;;;;;3.87;2.47;;;;;;;31.37;42.08;97652.53;7007522;28;20271;-81
2022/09/14 11:06:41;;;;;;;3.50;2.47;;;;;;;30.68;43.02;97647.81;7006874;28;20364;-79
2022/09/14 11:10:12;;;;;;;2.83;2.10;;;;;;;30.82;43.00;97650.91;7005699;28;20272;-78
2022/09/14 11:13:50;;;;;;;3.97;2.07;;;;;;;31.19;42.08;97645.78;7006359;28;20245;-78
2022/09/14 11:17:22;;;;;;;3.27;2.47;;;;;;;31.34;41.57;97631.78;7006810;28;20280;-79
2022/09/14 11:20:52;;;;;;;5.03;3.07;;;;;;;31.80;41.09;97611.19;7016009;28;20340;-79
2022/09/14 11:24:18;;;;;;;4.47;2.60;;;;;;;32.88;40.14;97620.53;7033581;28;20298;-80
2022/09/14 11:27:44;;;;;;;2.10;2.00;;;;;;;32.83;38.76;97615.25;7032179;28;20683;-79
2022/09/14 11:31:11;;;;;;;5.57;2.30;;;;;;;32.65;39.26;97616.16;7033839;28;20701;-78
2022/09/14 11:34:35;;;;;;;4.00;2.27;;;;;;;32.33;40.05;97612.09;7033787;28;20570;-79
2022/09/14 11:38:00;;;;;;;3.07;2.00;;;;;;;32.20;39.71;97605.88;7031751;28;20279;-79
2022/09/14 11:41:25;;;;;;;2.20;2.00;;;;;;;32.94;38.17;97602.25;7033836;28;20234;-79
2022/09/14 11:44:51;;;;;;;3.40;2.00;;;;;;;33.66;37.56;97586.72;7029051;28;20298;-79
2022/09/14 11:48:17;;;;;;;2.43;1.90;;;;;;;34.00;35.96;97612.66;7004067;28;20255;-78
2022/09/14 11:51:42;;;;;;;4.37;2.43;;;;;;;32.60;38.92;97614.50;7004352;28;20278;-78
2022/09/14 11:55:09;;;;;;;4.70;2.30;;;;;;;32.28;39.62;97615.19;7004971;28;20361;-78
2022/09/14 11:58:31;;;;;;;2.50;1.87;;;;;;;31.58;39.33;97600.78;7004843;28;20290;-78
2022/09/14 12:01:54;;;;;;;3.57;2.10;;;;;;;31.18;40.80;97616.25;7005398;28;20245;-79
2022/09/14 12:05:27;;;;;;;1.90;1.80;;;;;;;31.16;40.61;97613.88;7019191;28;20345;-81
2022/09/14 12:08:49;;;;;;;3.23;2.27;;;;;;;31.22;40.41;97609.66;7032250;28;20208;-78
2022/09/14 12:12:38;;;;;;;3.93;2.20;;;;;;;31.42;40.76;97608.44;7025820;28;20207;-80
2022/09/14 12:16:04;;;;;;;2.80;2.20;;;;;;;30.36;42.00;97585.03;7006033;28;20223;-80
2022/09/14 12:19:27;;;;;;;4.80;2.20;;;;;;;30.76;40.60;97591.13;7015041;28;20278;-80
2022/09/14 12:22:49;;;;;;;4.87;2.30;;;;;;;30.59;40.35;97624.09;7033898;28;20360;-81
2022/09/14 12:26:26;;;;;;;3.73;1.80;;;;;;;30.82;39.38;97613.91;7036264;28;20231;-80
2022/09/14 12:29:48;;;;;;;4.17;2.13;;;;;;;30.40;40.08;97562.84;7039495;28;20217;-80
2022/09/14 12:33:44;;;;;;;4.00;1.90;;;;;;;30.42;41.21;97630.88;7033115;28;20292;-80
2022/09/14 12:37:29;;;;;;;4.67;2.43;;;;;;;30.35;41.02;97618.75;7020970;28;20227;-80
2022/09/14 12:40:53;;;;;;;3.63;2.30;;;;;;;30.02;42.08;97616.34;7006978;28;20203;-81
2022/09/14 12:44:36;;;;;;;4.37;2.30;;;;;;;30.01;42.02;97627.84;7027910;28;20234;-79
2022/09/14 12:47:58;;;;;;;3.80;2.33;;;;;;;30.24;41.54;97634.41;7029597;28;20277;-80
2022/09/14 12:51:29;;;;;;;3.90;2.53;;;;;;;30.23;42.07;97646.69;7041181;28;20658;-80
2022/09/14 12:55:03;;;;;;;3.70;2.00;;;;;;;30.08;42.84;97639.16;7053240;28;20208;-80
2022/09/14 12:58:43;;;;;;;5.07;2.33;;;;;;;30.22;42.61;97639.50;7051723;28;20304;-80
2022/09/14 13:02:20;;;;;;;3.70;2.30;;;;;;;29.58;43.84;97659.28;7021773;28;20264;-79
2022/09/14 13:05:43;;;;;;;4.87;2.17;;;;;;;28.63;44.64;97654.81;7019568;28;20671;-80
2022/09/14 13:09:05;;;;;;;3.60;2.70;;;;;;;28.17;49.27;97672.72;7033242;28;20229;-80
2022/09/14 13:12:32;;;;;;;7.23;2.90;;;;;;;27.84;49.72;97693.34;7034497;28;20720;-79
2022/09/14 13:15:56;;;;;;;3.43;2.00;;;;;;;27.30;50.89;97680.69;7034640;28;20585;-80
2022/09/14 13:19:23;;;;;;;3.30;2.43;;;;;;;27.06;52.10;97683.28;7028691;28;20296;-79
2022/09/14 13:22:45;;;;;;;4.40;2.10;;;;;;;26.87;52.76;97667.19;7034476;28;20631;-80
2022/09/14 13:26:10;;;;;;;5.33;2.50;;;;;;;27.11;54.09;97674.78;7034837;28;20309;-80
2022/09/14 13:29:33;;;;;;;2.57;2.37;;;;;;;27.06;54.41;97684.09;7035155;28;20235;-80
2022/09/14 13:32:56;;;;;;;4.20;2.70;;;;;;;27.07;54.56;97707.84;7036151;28;20262;-80
2022/09/14 13:36:20;;;;;;;9.73;3.90;;;;;;;26.28;57.01;97706.22;7037011;28;20217;-80
2022/09/14 13:39:49;;;;;;;3.00;2.60;;;;;;;26.42;57.51;97690.25;7029540;28;20217;-79
2022/09/14 13:43:11;;;;;;;4.63;2.50;;;;;;;26.27;57.13;97661.22;7029792;28;20216;-80
2022/09/14 13:46:36;;;;;;;3.67;2.43;;;;;;;26.76;57.08;97718.50;7014985;28;20713;-80
2022/09/14 13:49:59;;;;;;;4.57;2.83;;;;;;;26.85;56.77;97732.28;7003961;28;20299;-79
2022/09/14 13:53:37;;;;;;;4.90;2.70;;;;;;;26.67;57.54;97733.53;7006744;28;20284;-80
2022/09/14 13:57:11;;;;;;;3.43;2.43;;;;;;;26.79;57.27;97744.69;7022602;28;20664;-80
2022/09/14 14:00:47;;;;;;;3.63;2.40;;;;;;;26.60;58.33;97711.94;7032905;28;20206;-80
2022/09/14 14:04:24;;;;;;;5.03;2.60;;;;;;;26.59;57.80;97703.97;7031882;28;20232;-80
2022/09/14 14:07:46;;;;;;;4.07;2.70;;;;;;;26.57;57.76;97709.84;7032369;28;20366;-80
2022/09/14 14:11:08;;;;;;;3.90;2.27;;;;;;;26.10;58.48;97705.50;7031652;28;20277;-79
2022/09/14 14:14:29;;;;;;;4.33;2.43;;;;;;;26.28;57.82;97693.22;7032624;28;20270;-80
2022/09/14 14:17:51;;;;;;;4.13;2.77;;;;;;;26.56;57.01;97666.75;7031460;28;20248;-79
2022/09/14 14:21:17;;;;;;;2.40;2.20;;;;;;;26.54;57.42;97680.09;7031552;28;20292;-81
2022/09/14 14:24:38;;;;;;;3.50;2.33;;;;;;;27.13;55.38;97670.53;7031555;28;20373;-79
2022/09/14 14:28:01;;;;;;;2.23;2.03;;;;;;;27.41;55.15;97679.09;7030732;28;20694;-80
2022/09/14 14:31:25;;;;;;;5.17;2.87;;;;;;;27.56;53.46;97670.16;7030192;28;20237;-79
2022/09/14 14:34:46;;;;;;;3.07;2.13;;;;;;;27.79;52.27;97686.03;7030549;28;20221;-80
2022/09/14 14:38:09;;;;;;;2.40;1.77;;;;;;;27.81;50.64;97685.69;7030894;28;20235;-78
2022/09/14 14:41:30;;;;;;;12.70;5.33;;;;;;;27.17;53.56;97703.91;7030920;28;20190;-77
2022/09/14 14:44:52;;;;;;;12.00;7.20;;;;;;;26.65;56.56;97710.94;7030958;28;20285;-78
2022/09/14 14:48:14;;;;;;;10.20;9.20;;;;;;;26.84;55.03;97717.63;7028953;28;20785;-80
2022/09/14 14:51:35;;;;;;;2.33;1.90;;;;;;;27.48;52.55;97729.22;7029700;28;20225;-79
2022/09/14 14:54:59;;;;;;;3.27;1.93;;;;;;;27.60;52.57;97718.97;7029618;28;20354;-78
2022/09/14 14:58:21;;;;;;;1.60;1.50;;;;;;;27.67;51.72;97718.41;7028533;28;20617;-79
2022/09/14 15:01:43;;;;;;;4.20;1.80;;;;;;;27.50;51.83;97711.09;7010915;28;20204;-78
2022/09/14 15:05:05;;;;;;;3.03;1.50;;;;;;;26.85;53.96;97722.00;7014511;28;20228;-79
2022/09/14 15:08:27;;;;;;;3.53;1.80;;;;;;;26.56;55.05;97712.94;7022060;28;20276;-79
2022/09/14 15:11:50;;;;;;;2.03;1.60;;;;;;;26.32;54.94;97699.69;7034929;28;20767;-78
2022/09/14 15:15:12;;;;;;;1.77;1.67;;;;;;;26.56;55.02;97712.94;7034277;28;20288;-79
2022/09/14 15:18:34;;;;;;;1.70;1.60;;;;;;;26.33;54.70;97714.34;7030305;28;20221;-78
2022/09/14 15:21:56;;;;;;;1.57;1.47;;;;;;;26.52;54.61;97723.00;7033942;28;20226;-78
2022/09/14 15:25:19;;;;;;;1.90;1.40;;;;;;;25.98;55.50;97699.88;7034255;28;20224;-78
2022/09/14 15:28:42;;;;;;;2.53;1.47;;;;;;;26.25;54.33;97695.84;7033487;28;20310;-78
2022/09/14 15:32:03;;;;;;;1.80;1.23;;;;;;;25.56;56.14;97688.91;7034411;28;20335;-78
2022/09/14 15:35:25;;;;;;;5.07;1.60;;;;;;;25.85;55.75;97675.19;7034088;28;20662;-77
2022/09/14 15:38:47;;;;;;;3.77;1.47;;;;;;;26.11;55.25;97660.16;7032448;28;20354;-77
2022/09/14 15:42:08;;;;;;;1.43;1.30;;;;;;;25.85;55.84;97626.28;7034267;28;20272;-78
2022/09/14 15:45:31;;;;;;;2.03;1.47;;;;;;;26.33;56.55;97632.25;7034027;28;20248;-79
2022/09/14 15:48:52;;;;;;;3.80;2.10;;;;;;;26.51;56.36;97632.91;7033298;28;20197;-78
2022/09/14 15:52:14;;;;;;;1.53;1.30;;;;;;;27.09;54.01;97605.97;7027180;28;20685;-78
2022/09/14 15:55:39;;;;;;;1.40;1.30;;;;;;;26.58;55.97;97600.88;7010191;28;20227;-78
2022/09/14 15:59:02;;;;;;;1.83;1.50;;;;;;;26.49;55.66;97596.53;7030769;28;20206;-79
2022/09/14 16:02:25;;;;;;;2.13;1.40;;;;;;;26.20;55.20;97593.78;7025735;28;20288;-78
2022/09/14 16:05:46;;;;;;;4.20;1.20;;;;;;;26.04;54.72;97610.13;7004548;28;20372;-78